createdAt,value
2022-10-10T00:00:28.987Z,10.62
2022-10-10T00:02:56.639Z,10.56
2022-10-10T00:05:25.749Z,10.53
2022-10-10T00:07:53.478Z,10.55
2022-10-10T00:10:21.321Z,10.47
2022-10-10T00:12:49.629Z,10.41
2022-10-10T00:15:18.111Z,10.36
2022-10-10T00:17:46.444Z,10.35
2022-10-10T00:20:16.722Z,10.38
2022-10-10T00:22:45.849Z,10.36
2022-10-10T00:25:13.832Z,10.33
2022-10-10T00:27:41.680Z,10.29
2022-10-10T00:30:10.894Z,10.23
2022-10-10T00:32:38.859Z,10.11
2022-10-10T00:35:07.394Z,9.90
2022-10-10T00:37:35.100Z,9.94
2022-10-10T00:40:05.321Z,9.87
2022-10-10T00:42:32.951Z,9.80
2022-10-10T00:45:30.184Z,9.87
2022-10-10T00:48:02.189Z,9.95
2022-10-10T00:50:30.959Z,9.86
2022-10-10T00:52:59.751Z,9.85
2022-10-10T00:55:28.877Z,9.82
2022-10-10T00:57:56.679Z,9.68
2022-10-10T01:00:24.401Z,9.61
2022-10-10T01:02:52.610Z,9.66
2022-10-10T01:05:20.777Z,9.56
2022-10-10T01:07:48.670Z,9.54
2022-10-10T01:10:20.056Z,9.49
2022-10-10T01:13:03.858Z,9.53
2022-10-10T01:15:42.744Z,9.52
2022-10-10T01:18:18.580Z,9.55
2022-10-10T01:20:56.030Z,9.57
2022-10-10T01:23:50.881Z,9.56
2022-10-10T01:26:35.613Z,9.56
2022-10-10T01:29:11.185Z,9.48
2022-10-10T01:31:41.323Z,9.44
2022-10-10T01:34:28.024Z,9.45
2022-10-10T01:37:02.252Z,9.24
2022-10-10T01:39:40.158Z,9.24
2022-10-10T01:42:12.729Z,9.11
2022-10-10T01:44:45.601Z,9.13
2022-10-10T01:47:14.107Z,9.09
2022-10-10T01:49:44.697Z,9.19
2022-10-10T01:52:23.999Z,9.15
2022-10-10T01:55:00.029Z,9.08
2022-10-10T01:57:35.584Z,9.15
2022-10-10T02:00:10.120Z,9.19
2022-10-10T02:02:46.928Z,9.22
2022-10-10T02:05:20.927Z,9.29
2022-10-10T02:07:51.796Z,9.22
2022-10-10T02:10:23.289Z,9.24
2022-10-10T02:12:51.894Z,9.33
2022-10-10T02:15:25.170Z,9.34
2022-10-10T02:17:54.706Z,9.44
2022-10-10T02:20:26.650Z,9.50
2022-10-10T02:22:55.388Z,9.54
2022-10-10T02:25:27.711Z,9.57
2022-10-10T02:28:06.078Z,9.53
2022-10-10T02:30:39.623Z,9.48
2022-10-10T02:33:09.199Z,9.47
2022-10-10T02:35:42.011Z,9.41
2022-10-10T02:38:13.758Z,9.42
2022-10-10T02:40:43.755Z,9.42
2022-10-10T02:43:12.833Z,9.43
2022-10-10T02:45:42.404Z,9.42
2022-10-10T02:48:10.472Z,9.43
2022-10-10T02:50:38.303Z,9.50
2022-10-10T02:53:05.999Z,9.52
2022-10-10T02:55:33.670Z,9.48
2022-10-10T02:58:01.337Z,9.41
2022-10-10T03:00:28.995Z,9.47
2022-10-10T03:02:57.968Z,9.43
2022-10-10T03:05:25.589Z,9.41
2022-10-10T03:07:53.257Z,9.41
2022-10-10T03:10:20.927Z,9.40
2022-10-10T03:12:48.836Z,9.37
2022-10-10T03:15:16.881Z,9.30
2022-10-10T03:17:45.034Z,9.31
2022-10-10T03:20:14.014Z,9.36
2022-10-10T03:22:41.711Z,9.36
2022-10-10T03:25:09.477Z,9.40
2022-10-10T03:27:37.668Z,9.31
2022-10-10T03:30:06.278Z,9.31
2022-10-10T03:32:34.017Z,9.36
2022-10-10T03:35:01.652Z,9.30
2022-10-10T03:37:31.045Z,9.31
2022-10-10T03:39:58.698Z,9.26
2022-10-10T03:42:26.300Z,9.15
2022-10-10T03:44:53.950Z,8.99
2022-10-10T03:47:21.607Z,9.02
2022-10-10T03:49:49.261Z,8.96
2022-10-10T03:52:17.001Z,8.99
2022-10-10T03:54:45.980Z,8.96
2022-10-10T03:57:13.598Z,8.91
2022-10-10T03:59:41.241Z,8.93
2022-10-10T04:02:08.855Z,8.99
2022-10-10T04:04:36.494Z,9.00
2022-10-10T04:07:04.195Z,8.98
2022-10-10T04:09:31.866Z,8.78
2022-10-10T04:12:01.021Z,8.66
2022-10-10T04:14:28.752Z,8.66
2022-10-10T04:16:59.687Z,8.75
2022-10-10T04:19:29.910Z,8.72
2022-10-10T04:21:57.571Z,8.72
2022-10-10T04:24:25.288Z,8.75
2022-10-10T04:26:53.203Z,8.67
2022-10-10T04:29:22.173Z,8.61
2022-10-10T04:31:49.866Z,8.63
2022-10-10T04:34:17.530Z,8.61
2022-10-10T04:36:45.218Z,8.63
2022-10-10T04:39:12.885Z,8.57
2022-10-10T04:41:40.530Z,8.57
2022-10-10T04:44:08.241Z,8.59
2022-10-10T04:46:37.179Z,8.60
2022-10-10T04:49:04.881Z,8.50
2022-10-10T04:51:32.897Z,8.56
2022-10-10T04:54:00.641Z,8.57
2022-10-10T04:56:28.738Z,8.66
2022-10-10T04:58:57.011Z,8.69
2022-10-10T05:01:24.745Z,8.62
2022-10-10T05:03:54.676Z,8.52
2022-10-10T05:06:22.323Z,8.44
2022-10-10T05:08:49.987Z,8.32
2022-10-10T05:11:17.954Z,8.27
2022-10-10T05:13:45.570Z,8.35
2022-10-10T05:16:13.740Z,8.46
2022-10-10T05:18:41.428Z,8.48
2022-10-10T05:21:11.762Z,8.60
2022-10-10T05:23:41.258Z,8.64
2022-10-10T05:26:10.013Z,8.67
2022-10-10T05:28:38.084Z,8.62
2022-10-10T05:31:06.584Z,8.68
2022-10-10T05:33:35.286Z,8.65
2022-10-10T05:36:05.237Z,8.67
2022-10-10T05:38:34.548Z,8.64
2022-10-10T05:41:02.243Z,8.70
2022-10-10T05:43:30.213Z,8.70
2022-10-10T05:46:02.291Z,8.74
2022-10-10T05:48:30.060Z,8.64
2022-10-10T05:50:59.345Z,8.55
2022-10-10T05:53:28.652Z,8.56
2022-10-10T05:55:58.087Z,8.67
2022-10-10T05:58:27.447Z,8.59
2022-10-10T06:00:55.204Z,8.36
2022-10-10T06:03:22.903Z,8.32
2022-10-10T06:05:52.809Z,8.32
2022-10-10T06:08:20.752Z,8.44
2022-10-10T06:10:48.763Z,8.53
2022-10-10T06:13:23.896Z,8.62
2022-10-10T06:15:52.560Z,8.63
2022-10-10T06:18:20.284Z,8.67
2022-10-10T06:20:47.973Z,8.70
2022-10-10T06:23:16.344Z,8.74
2022-10-10T06:25:44.021Z,8.71
2022-10-10T06:28:12.521Z,8.79
2022-10-10T06:30:43.382Z,8.83
2022-10-10T06:33:12.807Z,8.87
2022-10-10T06:35:41.976Z,8.95
2022-10-10T06:38:10.352Z,8.94
2022-10-10T06:40:38.280Z,9.02
2022-10-10T06:43:08.742Z,9.05
2022-10-10T06:45:37.372Z,9.07
2022-10-10T06:48:09.300Z,9.10
2022-10-10T06:50:37.345Z,9.20
2022-10-10T06:53:05.136Z,9.29
2022-10-10T06:55:33.022Z,9.40
2022-10-10T06:58:00.716Z,9.49
2022-10-10T07:00:28.376Z,9.59
2022-10-10T07:02:56.078Z,9.64
2022-10-10T07:05:25.138Z,9.63
2022-10-10T07:07:53.244Z,9.66
2022-10-10T07:10:21.307Z,9.77
2022-10-10T07:12:48.969Z,9.82
2022-10-10T07:15:16.642Z,9.89
2022-10-10T07:17:44.287Z,10.00
2022-10-10T07:20:11.949Z,10.05
2022-10-10T07:22:40.977Z,10.13
2022-10-10T07:25:09.549Z,10.17
2022-10-10T07:27:37.194Z,10.18
2022-10-10T07:30:05.899Z,10.29
2022-10-10T07:32:33.648Z,10.33
2022-10-10T07:35:01.766Z,10.39
2022-10-10T07:37:29.576Z,10.54
2022-10-10T07:39:58.590Z,10.59
2022-10-10T07:42:26.233Z,10.59
2022-10-10T07:44:53.933Z,10.69
2022-10-10T07:47:21.589Z,10.77
2022-10-10T07:49:49.298Z,10.90
2022-10-10T07:52:17.563Z,10.95
2022-10-10T07:54:45.362Z,11.04
2022-10-10T07:57:14.607Z,11.07
2022-10-10T07:59:45.566Z,11.12
2022-10-10T08:02:13.307Z,11.26
2022-10-10T08:04:41.044Z,11.33
2022-10-10T08:07:08.680Z,11.44
2022-10-10T08:09:36.323Z,11.54
2022-10-10T08:12:04.542Z,11.56
2022-10-10T08:14:33.519Z,11.61
2022-10-10T08:17:01.145Z,11.58
2022-10-10T08:19:28.873Z,11.72
2022-10-10T08:21:56.519Z,11.82
2022-10-10T08:24:24.315Z,11.76
2022-10-10T08:26:52.007Z,11.78
2022-10-10T08:29:19.772Z,11.83
2022-10-10T08:31:48.873Z,11.84
2022-10-10T08:34:16.565Z,11.91
2022-10-10T08:36:44.286Z,11.94
2022-10-10T08:39:12.081Z,12.13
2022-10-10T08:41:43.842Z,12.26
2022-10-10T08:44:20.581Z,12.32
2022-10-10T08:46:54.202Z,12.37
2022-10-10T08:49:26.465Z,12.45
2022-10-10T08:52:02.226Z,12.54
2022-10-10T08:54:32.624Z,12.65
2022-10-10T08:57:05.328Z,12.71
2022-10-10T08:59:37.142Z,12.76
2022-10-10T09:02:43.562Z,12.71
2022-10-10T09:05:20.298Z,12.85
2022-10-10T09:08:03.017Z,12.98
2022-10-10T09:10:37.887Z,13.08
2022-10-10T09:13:16.247Z,13.16
2022-10-10T09:15:53.239Z,13.16
2022-10-10T09:18:34.141Z,13.15
2022-10-10T09:21:09.209Z,13.31
2022-10-10T09:23:42.755Z,13.36
2022-10-10T09:26:13.988Z,13.39
2022-10-10T09:28:46.339Z,13.40
2022-10-10T09:31:17.450Z,13.42
2022-10-10T09:33:52.801Z,13.44
2022-10-10T09:36:24.639Z,13.54
2022-10-10T09:38:56.405Z,13.53
2022-10-10T09:41:28.360Z,13.56
2022-10-10T09:43:57.671Z,13.60
2022-10-10T09:46:27.207Z,13.63
2022-10-10T09:48:56.578Z,13.66
2022-10-10T09:51:24.557Z,13.74
2022-10-10T09:53:52.361Z,13.79
2022-10-10T09:56:22.352Z,13.80
2022-10-10T09:58:52.107Z,13.78
2022-10-10T10:01:22.628Z,13.83
2022-10-10T10:04:29.405Z,13.87
2022-10-10T10:07:07.136Z,13.86
2022-10-10T10:09:35.450Z,13.90
2022-10-10T10:12:06.147Z,13.95
2022-10-10T10:14:38.894Z,14.02
2022-10-10T10:17:09.629Z,14.09
2022-10-10T10:19:40.284Z,14.10
2022-10-10T10:22:26.806Z,14.14
2022-10-10T10:24:55.267Z,14.20
2022-10-10T10:27:24.515Z,14.24
2022-10-10T10:29:54.031Z,14.28
2022-10-10T10:32:40.034Z,14.28
2022-10-10T10:35:27.060Z,14.32
2022-10-10T10:38:12.171Z,14.34
2022-10-10T10:40:43.161Z,14.38
2022-10-10T10:43:27.870Z,14.44
2022-10-10T10:46:07.777Z,14.46
2022-10-10T10:48:42.032Z,14.47
2022-10-10T10:51:27.563Z,14.50
2022-10-10T10:54:03.659Z,14.57
2022-10-10T10:56:39.476Z,14.62
2022-10-10T11:00:25.917Z,14.68
2022-10-10T11:02:55.498Z,14.71
2022-10-10T11:05:41.795Z,14.76
2022-10-10T11:08:21.430Z,14.79
2022-10-10T11:11:01.335Z,14.86
2022-10-10T11:13:38.741Z,14.88
2022-10-10T11:16:36.281Z,14.92
2022-10-10T11:19:13.034Z,14.97
2022-10-10T11:21:46.261Z,15.00
2022-10-10T11:24:29.972Z,15.06
2022-10-10T11:27:05.738Z,15.12
2022-10-10T11:29:39.677Z,15.10
2022-10-10T11:32:14.099Z,15.14
2022-10-10T11:34:45.762Z,15.13
2022-10-10T11:37:20.531Z,15.18
2022-10-10T11:42:47.449Z,15.26
2022-10-10T11:45:17.745Z,15.42
2022-10-10T11:47:53.999Z,15.54
2022-10-10T11:50:27.329Z,15.62
2022-10-10T11:53:01.415Z,15.89
2022-10-10T11:55:39.223Z,16.16
2022-10-10T11:58:40.946Z,16.29
2022-10-10T12:01:41.232Z,16.51
2022-10-10T12:04:20.467Z,16.56
2022-10-10T12:07:05.502Z,16.65
2022-10-10T12:09:39.927Z,16.70
2022-10-10T12:12:15.860Z,16.88
2022-10-10T12:14:48.092Z,16.96
2022-10-10T12:17:22.669Z,16.98
2022-10-10T12:19:52.285Z,17.11
2022-10-10T12:22:25.674Z,17.23
2022-10-10T12:25:25.658Z,17.26
2022-10-10T12:28:07.409Z,17.35
2022-10-10T12:30:35.209Z,17.40
2022-10-10T12:33:03.132Z,17.55
2022-10-10T12:35:36.700Z,17.69
2022-10-10T12:38:12.569Z,17.82
2022-10-10T12:41:07.316Z,18.01
2022-10-10T12:43:49.322Z,18.01
2022-10-10T12:46:31.497Z,18.02
2022-10-10T12:49:06.722Z,18.17
2022-10-10T12:51:37.225Z,18.25
2022-10-10T12:54:08.328Z,18.29
2022-10-10T12:56:40.789Z,18.40
2022-10-10T12:59:21.335Z,18.47
2022-10-10T13:01:54.092Z,18.36
2022-10-10T13:04:22.659Z,18.51
2022-10-10T13:06:55.270Z,18.53
2022-10-10T13:09:28.916Z,18.41
2022-10-10T13:12:01.878Z,18.40
2022-10-10T13:14:41.609Z,18.47
2022-10-10T13:17:23.504Z,18.50
2022-10-10T13:19:52.119Z,18.47
2022-10-10T13:22:21.010Z,18.42
2022-10-10T13:24:51.416Z,18.40
2022-10-10T13:27:22.355Z,18.46
2022-10-10T13:29:52.486Z,18.42
2022-10-10T13:32:23.152Z,18.33
2022-10-10T13:34:55.464Z,18.25
2022-10-10T13:37:24.049Z,18.19
2022-10-10T13:39:53.182Z,18.11
2022-10-10T13:42:33.886Z,18.07
2022-10-10T13:45:23.341Z,17.99
2022-10-10T13:47:56.389Z,17.94
2022-10-10T13:50:27.727Z,17.90
2022-10-10T13:53:32.245Z,17.88
2022-10-10T13:56:05.714Z,17.88
2022-10-10T13:58:39.411Z,17.86
2022-10-10T14:01:22.242Z,17.81
2022-10-10T14:03:52.562Z,17.75
2022-10-10T14:06:21.813Z,17.71
2022-10-10T14:08:50.809Z,17.67
2022-10-10T14:11:21.572Z,17.65
2022-10-10T14:13:52.678Z,17.64
2022-10-10T14:16:26.232Z,17.65
2022-10-10T14:18:54.468Z,17.64
2022-10-10T14:21:22.227Z,17.65
2022-10-10T14:23:49.908Z,17.65
2022-10-10T14:26:20.162Z,17.62
2022-10-10T14:28:47.894Z,17.59
2022-10-10T14:31:15.912Z,17.58
2022-10-10T14:33:45.232Z,17.56
2022-10-10T14:36:14.247Z,17.55
2022-10-10T14:38:42.050Z,17.52
2022-10-10T14:41:14.098Z,17.49
2022-10-10T14:43:45.852Z,17.47
2022-10-10T14:46:19.136Z,17.45
2022-10-10T14:48:48.258Z,17.40
2022-10-10T14:51:34.328Z,17.40
2022-10-10T14:54:10.692Z,17.38
2022-10-10T14:57:07.801Z,17.35
2022-10-10T14:59:48.070Z,17.34
2022-10-10T15:02:16.637Z,17.34
2022-10-10T15:04:45.709Z,17.32
2022-10-10T15:07:14.959Z,17.26
2022-10-10T15:09:57.689Z,17.21
2022-10-10T15:12:31.314Z,17.15
2022-10-10T15:14:58.939Z,17.13
2022-10-10T15:17:27.105Z,17.11
2022-10-10T15:19:56.257Z,17.08
2022-10-10T15:22:23.986Z,17.06
2022-10-10T15:24:51.683Z,17.05
2022-10-10T15:27:19.651Z,17.04
2022-10-10T15:29:47.414Z,16.99
2022-10-10T15:32:15.050Z,16.98
2022-10-10T15:34:42.761Z,16.99
2022-10-10T15:37:11.803Z,16.99
2022-10-10T15:39:41.126Z,16.99
2022-10-10T15:42:14.977Z,16.95
2022-10-10T15:44:46.881Z,16.93
2022-10-10T15:47:15.838Z,16.90
2022-10-10T15:49:43.950Z,16.88
2022-10-10T15:52:13.462Z,16.83
2022-10-10T15:54:41.384Z,16.80
2022-10-10T15:57:09.045Z,16.77
2022-10-10T15:59:39.157Z,16.75
2022-10-10T16:02:10.718Z,16.74
2022-10-10T16:04:38.757Z,16.73
2022-10-10T16:07:25.440Z,16.72
2022-10-10T16:09:56.072Z,16.68
2022-10-10T16:12:23.794Z,16.68
2022-10-10T16:14:51.549Z,16.67
2022-10-10T16:17:23.131Z,16.65
2022-10-10T16:19:51.421Z,16.65
2022-10-10T16:22:19.102Z,16.62
2022-10-10T16:24:58.337Z,16.60
2022-10-10T16:27:38.883Z,16.59
2022-10-10T16:30:08.030Z,16.56
2022-10-10T16:32:40.897Z,16.54
2022-10-10T16:35:12.483Z,16.54
2022-10-10T16:37:40.289Z,16.52
2022-10-10T16:42:55.869Z,16.53
2022-10-10T16:45:23.601Z,16.58
2022-10-10T16:47:51.313Z,16.60
2022-10-10T16:50:19.402Z,16.61
2022-10-10T16:52:47.107Z,16.62
2022-10-10T16:55:14.923Z,16.60
2022-10-10T16:57:42.645Z,16.49
2022-10-10T17:00:12.777Z,16.46
2022-10-10T17:02:42.191Z,16.42
2022-10-10T17:05:10.499Z,16.33
2022-10-10T17:07:38.176Z,16.25
2022-10-10T17:10:07.038Z,16.07
2022-10-10T17:12:35.047Z,16.03
2022-10-10T17:15:03.544Z,15.97
2022-10-10T17:17:32.610Z,15.88
2022-10-10T17:20:02.157Z,15.78
2022-10-10T17:22:30.136Z,15.73
2022-10-10T17:24:57.845Z,15.66
2022-10-10T17:27:25.546Z,15.64
2022-10-10T17:29:53.930Z,15.65
2022-10-10T17:32:22.248Z,15.66
2022-10-10T17:34:51.234Z,15.60
2022-10-10T17:37:19.051Z,15.56
2022-10-10T17:39:46.973Z,15.38
2022-10-10T17:42:16.482Z,15.31
2022-10-10T17:44:51.466Z,15.33
2022-10-10T17:47:23.009Z,15.31
2022-10-10T17:49:52.143Z,15.30
2022-10-10T17:52:21.403Z,15.26
2022-10-10T17:54:49.562Z,15.30
2022-10-10T17:57:18.226Z,15.35
2022-10-10T17:59:46.285Z,15.24
2022-10-10T18:02:16.630Z,14.96
2022-10-10T18:04:45.196Z,14.98
2022-10-10T18:07:14.952Z,14.97
2022-10-10T18:09:43.229Z,15.00
2022-10-10T18:12:11.173Z,15.02
2022-10-10T18:14:38.920Z,14.94
2022-10-10T18:17:06.641Z,14.96
2022-10-10T18:19:34.377Z,14.90
2022-10-10T18:22:02.278Z,14.87
2022-10-10T18:24:31.385Z,14.90
2022-10-10T18:26:59.253Z,14.85
2022-10-10T18:29:27.079Z,14.81
2022-10-10T18:31:56.452Z,14.83
2022-10-10T18:34:24.257Z,14.79
2022-10-10T18:36:52.094Z,14.82
2022-10-10T18:39:19.902Z,14.76
2022-10-10T18:41:49.039Z,14.76
2022-10-10T18:44:19.261Z,14.76
2022-10-10T18:46:47.109Z,14.78
2022-10-10T18:49:14.946Z,14.77
2022-10-10T18:51:43.632Z,14.70
2022-10-10T18:54:13.859Z,14.69
2022-10-10T18:56:42.542Z,14.67
2022-10-10T18:59:15.274Z,14.58
2022-10-10T19:01:45.475Z,14.50
2022-10-10T19:04:15.249Z,14.50
2022-10-10T19:06:43.861Z,14.54
2022-10-10T19:09:15.141Z,14.58
2022-10-10T19:11:44.888Z,14.60
2022-10-10T19:14:16.554Z,14.53
2022-10-10T19:16:45.790Z,14.54
2022-10-10T19:19:16.213Z,14.43
2022-10-10T19:21:45.672Z,14.25
2022-10-10T19:24:15.244Z,14.32
2022-10-10T19:26:44.654Z,14.33
2022-10-10T19:29:14.835Z,14.30
2022-10-10T19:31:42.552Z,14.28
2022-10-10T19:34:10.320Z,14.26
2022-10-10T19:36:39.852Z,14.23
2022-10-10T19:39:09.701Z,14.23
2022-10-10T19:41:38.223Z,14.23
2022-10-10T19:44:06.198Z,14.12
2022-10-10T19:46:38.269Z,14.12
2022-10-10T19:49:06.283Z,14.14
2022-10-10T19:51:34.076Z,14.19
2022-10-10T19:54:02.086Z,14.14
2022-10-10T19:56:29.847Z,14.18
2022-10-10T19:59:00.575Z,14.30
2022-10-10T20:01:30.328Z,14.41
2022-10-10T20:04:00.051Z,14.46
2022-10-10T20:06:28.513Z,14.42
2022-10-10T20:08:56.789Z,14.42
2022-10-10T20:11:26.185Z,14.43
2022-10-10T20:13:55.293Z,14.44
2022-10-10T20:16:24.432Z,14.32
2022-10-10T20:18:52.268Z,14.29
2022-10-10T20:21:24.493Z,14.21
2022-10-10T20:23:52.759Z,14.13
2022-10-10T20:26:22.882Z,14.08
2022-10-10T20:28:51.409Z,14.07
2022-10-10T20:31:21.350Z,14.02
2022-10-10T20:33:50.748Z,13.98
2022-10-10T20:36:19.348Z,13.87
2022-10-10T20:38:54.399Z,13.85
2022-10-10T20:41:23.385Z,13.76
2022-10-10T20:43:51.274Z,13.75
2022-10-10T20:46:21.263Z,13.79
2022-10-10T20:48:49.032Z,13.74
2022-10-10T20:51:16.836Z,13.70
2022-10-10T20:53:44.873Z,13.64
2022-10-10T20:56:14.470Z,13.59
2022-10-10T20:58:42.182Z,13.62
2022-10-10T21:01:12.869Z,13.57
2022-10-10T21:03:41.390Z,13.55
2022-10-10T21:06:12.867Z,13.52
2022-10-10T21:08:41.544Z,13.43
2022-10-10T21:11:10.985Z,13.39
2022-10-10T21:13:42.297Z,13.40
2022-10-10T21:16:12.506Z,13.37
2022-10-10T21:18:41.947Z,13.32
2022-10-10T21:21:10.078Z,13.29
2022-10-10T21:23:39.933Z,13.32
2022-10-10T21:26:09.139Z,13.29
2022-10-10T21:28:37.116Z,13.26
2022-10-10T21:31:07.440Z,13.17
2022-10-10T21:33:35.451Z,13.15
2022-10-10T21:36:04.805Z,13.17
2022-10-10T21:38:32.885Z,13.11
2022-10-10T21:41:06.626Z,13.08
2022-10-10T21:43:35.347Z,13.07
2022-10-10T21:46:04.679Z,13.03
2022-10-10T21:48:34.679Z,12.98
2022-10-10T21:51:02.791Z,12.95
2022-10-10T21:53:31.277Z,12.95
2022-10-10T21:55:59.051Z,12.86
2022-10-10T21:58:27.119Z,12.87
2022-10-10T22:00:55.021Z,12.93
2022-10-10T22:03:23.047Z,12.94
2022-10-10T22:05:52.141Z,12.90
2022-10-10T22:08:19.905Z,12.83
2022-10-10T22:10:47.581Z,12.77
2022-10-10T22:13:15.296Z,12.77
2022-10-10T22:15:43.144Z,12.76
2022-10-10T22:18:10.874Z,12.74
2022-10-10T22:20:38.575Z,12.60
2022-10-10T22:23:07.573Z,12.49
2022-10-10T22:25:35.267Z,12.45
2022-10-10T22:28:06.211Z,12.48
2022-10-10T22:30:34.243Z,12.43
2022-10-10T22:33:02.447Z,12.39
2022-10-10T22:35:30.225Z,12.28
2022-10-10T22:37:58.010Z,12.27
2022-10-10T22:40:27.208Z,12.26
2022-10-10T22:42:54.964Z,12.30
2022-10-10T22:45:23.119Z,12.31
2022-10-10T22:47:51.204Z,12.33
2022-10-10T22:50:19.378Z,12.30
2022-10-10T22:52:47.091Z,12.30
2022-10-10T22:55:18.416Z,12.22
2022-10-10T22:57:48.193Z,12.16
2022-10-10T23:00:17.117Z,12.12
2022-10-10T23:02:44.942Z,12.16
2022-10-10T23:05:12.791Z,12.18
2022-10-10T23:07:40.437Z,12.21
2022-10-10T23:10:09.526Z,12.07
2022-10-10T23:12:38.059Z,12.06
2022-10-10T23:15:08.234Z,12.06
2022-10-10T23:17:35.944Z,12.08
2022-10-10T23:20:03.936Z,12.15
2022-10-10T23:22:31.597Z,12.14
2022-10-10T23:24:59.251Z,12.15
2022-10-10T23:27:26.964Z,12.20
2022-10-10T23:29:54.947Z,12.20
2022-10-10T23:32:26.735Z,12.10
2022-10-10T23:34:54.434Z,12.00
2022-10-10T23:37:22.356Z,11.98
2022-10-10T23:39:50.045Z,12.05
2022-10-10T23:42:17.726Z,12.04
2022-10-10T23:44:45.413Z,11.95
2022-10-10T23:47:13.184Z,11.88
2022-10-10T23:49:42.195Z,11.86
2022-10-10T23:52:09.849Z,11.89
2022-10-10T23:54:37.538Z,11.89
2022-10-10T23:57:05.191Z,11.90
2022-10-10T23:59:32.931Z,11.83
